Coral Leaf — PHNI — position and weather

sailwx.info

Track history (hours):
 
Tides and Currents Weather Stations Pressure Air Temp Water Temp Dewpoint Dewpoint Depression Visibility Wind Speed Wind Dir Waves Ship Positions

Coral Leaf

Last reported at 2015-Mar-27 23:33 UTC. Time now 2015-Mar-28 00:31 UTC.
Position N 57°10' E 011°40'.

Length 108 m; draft 6.6 m.

Type: Ship (hazmat cat C). MMSI: 244036000.

Date/timePositionNaut miles runAvg speedWind from/ knotsBaromVisibWave heightAir tempDewpointWater temp
2015-Mar-27 23:33N 57°10' E 011°40'1413.9
2015-Mar-27 22:33N 56°57' E 011°47'1414.0
2015-Mar-27 21:33N 56°44' E 011°56'1413.9
2015-Mar-27 20:33N 56°30' E 012°01'1413.7
2015-Mar-27 19:34N 56°17' E 012°09'1414.0
2015-Mar-27 18:33N 56°09' E 012°29'1313.5
2015-Mar-27 17:34N 55°58' E 012°43'1313.3
2015-Mar-27 16:33N 55°45' E 012°50'10 9.8
2015-Mar-27 15:33N 55°35' E 012°51'1211.5
2015-Mar-27 14:33N 55°25' E 012°41'1211.5
2015-Mar-27 13:33N 55°16' E 012°53'1514.8
2015-Mar-27 12:34N 55°15' E 013°19'1914.8
2015-Mar-27 11:18N 55°14' E 013°52'1114.8
2015-Mar-27 10:32N 55°13' E 014°12'1414.1
2015-Mar-27 09:33N 55°23' E 014°30'1414.5
2015-Mar-27 08:33N 55°31' E 014°50'1514.4
2015-Mar-27 07:33N 55°39' E 015°12'1614.4
2015-Mar-27 06:28N 55°46' E 015°37'34113.2
2015-Mar-26 04:33N 59°38' E 023°24'1413.6
2015-Mar-26 03:33N 59°42' E 023°50'1713.3
2015-Mar-26 02:18N 59°46' E 024°22'1013.3
2015-Mar-26 01:33N 59°48' E 024°42'4 0.1
2015-Mar-24 20:08N 59°45' E 024°39'915.3
2015-Mar-24 19:33N 59°43' E 024°22'1615.4
2015-Mar-24 18:32N 59°38' E 023°52'1515.6
2015-Mar-24 17:33N 59°34' E 023°23'34414.3
2015-Mar-23 17:24N 55°40' E 015°31'1315.3
2015-Mar-23 16:33N 55°34' E 015°11'1515.4
2015-Mar-23 15:34N 55°27' E 014°47'1515.2
2015-Mar-23 14:33N 55°16' E 014°28'1414.4
2015-Mar-23 13:34N 55°10' E 014°05'1515.0
2015-Mar-23 12:34N 55°12' E 013°39'1514.6
2015-Mar-23 11:33N 55°13' E 013°13'1413.9
2015-Mar-23 10:33N 55°15' E 012°49'1010.0
2015-Mar-23 09:33N 55°24' E 012°39'1312.8
2015-Mar-23 08:33N 55°35' E 012°50'1110.5
2015-Mar-23 07:33N 55°45' E 012°50'1413.7
2015-Mar-23 06:34N 55°58' E 012°41'1413.5
2015-Mar-23 05:33N 56°09' E 012°26'1914.2
2015-Mar-23 04:12N 56°22' E 012°01'914.6
2015-Mar-23 03:33N 56°31' E 011°57'1413.8
2015-Mar-23 02:33N 56°45' E 011°52'1414.0
2015-Mar-23 01:33N 56°58' E 011°43'1313.4
2015-Mar-23 00:33N 57°10' E 011°35'1413.7
2015-Mar-22 23:33N 57°23' E 011°26'1313.3
2015-Mar-22 22:33N 57°32' E 011°08'1414.4
2015-Mar-22 21:33N 57°39' E 010°44'5 1.0
2015-Mar-22 17:12N 57°41' E 010°36'913.5
2015-Mar-22 16:33N 57°41' E 010°53'1414.1
2015-Mar-22 15:34N 57°48' E 011°15'1312.6
2015-Mar-22 14:33N 57°55' E 011°35'10 9.6
2015-Mar-22 13:33N 58°02' E 011°47'3 3.3
2015-Mar-22 12:32N 58°05' E 011°49'0 0.0
2015-Mar-22 11:23N 58°05' E 011°49'0 0.0
2015-Mar-22 10:20N 58°05' E 011°49'0 0.0
2015-Mar-22 09:14N 58°05' E 011°49'0 0.0
2015-Mar-22 06:32N 58°05' E 011°49'0 0.0
2015-Mar-22 04:26N 58°05' E 011°49'0 0.0
2015-Mar-22 03:08N 58°05' E 011°49'0 0.0
2015-Mar-22 02:05N 58°05' E 011°49'0 0.0
2015-Mar-21 22:20N 58°05' E 011°49'0 0.0
2015-Mar-21 21:32N 58°05' E 011°49'0 0.0
2015-Mar-21 20:32N 58°05' E 011°49'3 3.0
2015-Mar-21 19:33N 58°03' E 011°48'10 9.6
2015-Mar-21 18:33N 57°55' E 011°36'1110.6
2015-Mar-21 17:33N 57°46' E 011°25'1312.9
2015-Mar-21 16:33N 57°33' E 011°25'1413.7
2015-Mar-21 15:33N 57°21' E 011°33'1414.1
2015-Mar-21 14:33N 57°07' E 011°41'1414.5
2015-Mar-21 13:33N 56°53' E 011°50'1414.2
2015-Mar-21 12:33N 56°40' E 011°57'2512.5
2015-Mar-21 10:33N 56°16' E 012°11'1413.9
2015-Mar-21 09:33N 56°08' E 012°31'1514.6
2015-Mar-21 08:33N 55°55' E 012°44'1414.1
2015-Mar-21 07:33N 55°42' E 012°53'1110.8
2015-Mar-21 06:33N 55°32' E 012°46'1313.2
2015-Mar-21 05:34N 55°19' E 012°40'1413.8
2015-Mar-21 04:34N 55°16' E 013°04'1514.5
2015-Mar-21 03:30N 55°15' E 013°31'1614.7
2015-Mar-21 02:24N 55°14' E 013°59'1113.4
2015-Mar-21 01:32N 55°14' E 014°19'1414.6
2015-Mar-21 00:33N 55°25' E 014°34'1414.3
2015-Mar-20 23:33N 55°32' E 014°56'1414.4
2015-Mar-20 22:33N 55°40' E 015°18'34813.9
2015-Mar-19 21:27N 59°36' E 023°14'1212.9
2015-Mar-19 20:33N 59°40' E 023°37'1312.8
2015-Mar-19 19:32N 59°43' E 024°01'1212.8
2015-Mar-19 18:34N 59°47' E 024°25'3812.1
2015-Mar-19 15:25N 60°03' E 025°34'5 0.2
2015-Mar-18 14:33N 60°08' E 025°35'1914.4
2015-Mar-18 13:15N 59°50' E 025°22'1315.2
2015-Mar-18 12:25N 59°47' E 024°57'1315.3
2015-Mar-18 11:33N 59°44' E 024°32'1515.3
2015-Mar-18 10:33N 59°40' E 024°03'1515.4
2015-Mar-18 09:33N 59°35' E 023°34'1615.6
2015-Mar-18 08:33N 59°31' E 023°04'  
Track history (hours):
 
Tides and Currents Weather Stations Pressure Air Temp Water Temp Dewpoint Dewpoint Depression Visibility Wind Speed Wind Dir Waves Ship Positions

Coral Leaf

Last reported at 2015-Mar-27 23:33 UTC. Time now 2015-Mar-28 00:31 UTC.
Position N 57°10' E 011°40'.

Length 108 m; draft 6.6 m.

Type: Ship (hazmat cat C). MMSI: 244036000.

Date/timePositionNaut miles runAvg speedWind from/ knotsBaromVisibWave heightAir tempDewpointWater temp
2015-Mar-27 23:33N 57°10' E 011°40'1413.9
2015-Mar-27 22:33N 56°57' E 011°47'1414.0
2015-Mar-27 21:33N 56°44' E 011°56'1413.9
2015-Mar-27 20:33N 56°30' E 012°01'1413.7
2015-Mar-27 19:34N 56°17' E 012°09'1414.0
2015-Mar-27 18:33N 56°09' E 012°29'1313.5
2015-Mar-27 17:34N 55°58' E 012°43'1313.3
2015-Mar-27 16:33N 55°45' E 012°50'10 9.8
2015-Mar-27 15:33N 55°35' E 012°51'1211.5
2015-Mar-27 14:33N 55°25' E 012°41'1211.5
2015-Mar-27 13:33N 55°16' E 012°53'1514.8
2015-Mar-27 12:34N 55°15' E 013°19'1914.8
2015-Mar-27 11:18N 55°14' E 013°52'1114.8
2015-Mar-27 10:32N 55°13' E 014°12'1414.1
2015-Mar-27 09:33N 55°23' E 014°30'1414.5
2015-Mar-27 08:33N 55°31' E 014°50'1514.4
2015-Mar-27 07:33N 55°39' E 015°12'1614.4
2015-Mar-27 06:28N 55°46' E 015°37'34113.2
2015-Mar-26 04:33N 59°38' E 023°24'1413.6
2015-Mar-26 03:33N 59°42' E 023°50'1713.3
2015-Mar-26 02:18N 59°46' E 024°22'1013.3
2015-Mar-26 01:33N 59°48' E 024°42'4 0.1
2015-Mar-24 20:08N 59°45' E 024°39'915.3
2015-Mar-24 19:33N 59°43' E 024°22'1615.4
2015-Mar-24 18:32N 59°38' E 023°52'1515.6
2015-Mar-24 17:33N 59°34' E 023°23'34414.3
2015-Mar-23 17:24N 55°40' E 015°31'1315.3
2015-Mar-23 16:33N 55°34' E 015°11'1515.4
2015-Mar-23 15:34N 55°27' E 014°47'1515.2
2015-Mar-23 14:33N 55°16' E 014°28'1414.4
2015-Mar-23 13:34N 55°10' E 014°05'1515.0
2015-Mar-23 12:34N 55°12' E 013°39'1514.6
2015-Mar-23 11:33N 55°13' E 013°13'1413.9
2015-Mar-23 10:33N 55°15' E 012°49'1010.0
2015-Mar-23 09:33N 55°24' E 012°39'1312.8
2015-Mar-23 08:33N 55°35' E 012°50'1110.5
2015-Mar-23 07:33N 55°45' E 012°50'1413.7
2015-Mar-23 06:34N 55°58' E 012°41'1413.5
2015-Mar-23 05:33N 56°09' E 012°26'1914.2
2015-Mar-23 04:12N 56°22' E 012°01'914.6
2015-Mar-23 03:33N 56°31' E 011°57'1413.8
2015-Mar-23 02:33N 56°45' E 011°52'1414.0
2015-Mar-23 01:33N 56°58' E 011°43'1313.4
2015-Mar-23 00:33N 57°10' E 011°35'1413.7
2015-Mar-22 23:33N 57°23' E 011°26'1313.3
2015-Mar-22 22:33N 57°32' E 011°08'1414.4
2015-Mar-22 21:33N 57°39' E 010°44'5 1.0
2015-Mar-22 17:12N 57°41' E 010°36'913.5
2015-Mar-22 16:33N 57°41' E 010°53'1414.1
2015-Mar-22 15:34N 57°48' E 011°15'1312.6
2015-Mar-22 14:33N 57°55' E 011°35'10 9.6
2015-Mar-22 13:33N 58°02' E 011°47'3 3.3
2015-Mar-22 12:32N 58°05' E 011°49'0 0.0
2015-Mar-22 11:23N 58°05' E 011°49'0 0.0
2015-Mar-22 10:20N 58°05' E 011°49'0 0.0
2015-Mar-22 09:14N 58°05' E 011°49'0 0.0
2015-Mar-22 06:32N 58°05' E 011°49'0 0.0
2015-Mar-22 04:26N 58°05' E 011°49'0 0.0
2015-Mar-22 03:08N 58°05' E 011°49'0 0.0
2015-Mar-22 02:05N 58°05' E 011°49'0 0.0
2015-Mar-21 22:20N 58°05' E 011°49'0 0.0
2015-Mar-21 21:32N 58°05' E 011°49'0 0.0
2015-Mar-21 20:32N 58°05' E 011°49'3 3.0
2015-Mar-21 19:33N 58°03' E 011°48'10 9.6
2015-Mar-21 18:33N 57°55' E 011°36'1110.6
2015-Mar-21 17:33N 57°46' E 011°25'1312.9
2015-Mar-21 16:33N 57°33' E 011°25'1413.7
2015-Mar-21 15:33N 57°21' E 011°33'1414.1
2015-Mar-21 14:33N 57°07' E 011°41'1414.5
2015-Mar-21 13:33N 56°53' E 011°50'1414.2
2015-Mar-21 12:33N 56°40' E 011°57'2512.5
2015-Mar-21 10:33N 56°16' E 012°11'1413.9
2015-Mar-21 09:33N 56°08' E 012°31'1514.6
2015-Mar-21 08:33N 55°55' E 012°44'1414.1
2015-Mar-21 07:33N 55°42' E 012°53'1110.8
2015-Mar-21 06:33N 55°32' E 012°46'1313.2
2015-Mar-21 05:34N 55°19' E 012°40'1413.8
2015-Mar-21 04:34N 55°16' E 013°04'1514.5
2015-Mar-21 03:30N 55°15' E 013°31'1614.7
2015-Mar-21 02:24N 55°14' E 013°59'1113.4
2015-Mar-21 01:32N 55°14' E 014°19'1414.6
2015-Mar-21 00:33N 55°25' E 014°34'1414.3
2015-Mar-20 23:33N 55°32' E 014°56'1414.4
2015-Mar-20 22:33N 55°40' E 015°18'34813.9
2015-Mar-19 21:27N 59°36' E 023°14'1212.9
2015-Mar-19 20:33N 59°40' E 023°37'1312.8
2015-Mar-19 19:32N 59°43' E 024°01'1212.8
2015-Mar-19 18:34N 59°47' E 024°25'3812.1
2015-Mar-19 15:25N 60°03' E 025°34'5 0.2
2015-Mar-18 14:33N 60°08' E 025°35'1914.4
2015-Mar-18 13:15N 59°50' E 025°22'1315.2
2015-Mar-18 12:25N 59°47' E 024°57'1315.3
2015-Mar-18 11:33N 59°44' E 024°32'1515.3
2015-Mar-18 10:33N 59°40' E 024°03'1515.4
2015-Mar-18 09:33N 59°35' E 023°34'1615.6
2015-Mar-18 08:33N 59°31' E 023°04'  

Dump ship's entire track history